Time;durP1;ratioP1;P1;durP2;ratioP2;P2;SDS_P1;SDS_P2;PMS_P1;PMS_P2;Temp;Humidity;BMP_temperature;BMP_pressure;BME280_temperature;BME280_humidity;BME280_pressure;Samples;Min_cycle;Max_cycle;Signal;HPM_P1;HPM_P2
2021/04/29 00:00:36;;;;;;;15.27;8.20;;;8.70;99.90;;;;;;5030639;28;20032;-73
2021/04/29 00:03:02;;;;;;;10.48;7.82;;;8.70;99.90;;;;;;5031080;28;20087;-73
2021/04/29 00:05:28;;;;;;;15.57;8.55;;;8.70;99.90;;;;;;5029244;28;20395;-74
2021/04/29 00:07:54;;;;;;;16.02;7.90;;;8.70;99.90;;;;;;5030814;28;20075;-73
2021/04/29 00:10:23;;;;;;;11.00;7.43;;;8.70;99.90;;;;;;5030421;28;20029;-73
2021/04/29 00:12:49;;;;;;;11.95;7.70;;;8.80;99.90;;;;;;5030846;28;20056;-73
2021/04/29 00:15:16;;;;;;;18.23;10.23;;;8.90;99.90;;;;;;5029010;28;20494;-73
2021/04/29 00:17:43;;;;;;;14.40;9.30;;;8.90;99.90;;;;;;5030538;28;20022;-73
2021/04/29 00:20:12;;;;;;;15.70;9.02;;;9.00;99.90;;;;;;5030176;28;20050;-73
2021/04/29 00:22:37;;;;;;;13.80;8.45;;;9.10;99.90;;;;;;5030145;28;20017;-73
2021/04/29 00:25:04;;;;;;;12.75;8.13;;;9.20;99.90;;;;;;5030099;28;20025;-73
2021/04/29 00:27:30;;;;;;;15.02;8.50;;;9.10;99.90;;;;;;5030135;28;20536;-73
2021/04/29 00:29:55;;;;;;;15.70;8.57;;;9.20;99.90;;;;;;5029921;28;20061;-74
2021/04/29 00:32:21;;;;;;;11.68;8.27;;;9.10;99.90;;;;;;5030015;28;20506;-73
2021/04/29 00:34:46;;;;;;;12.25;7.45;;;9.10;99.90;;;;;;5028602;28;20406;-73
2021/04/29 00:37:12;;;;;;;15.02;7.90;;;9.00;99.90;;;;;;5029458;28;20485;-73
2021/04/29 00:39:37;;;;;;;11.02;7.82;;;9.00;99.90;;;;;;5029793;28;20026;-73
2021/04/29 00:42:03;;;;;;;12.20;7.95;;;8.90;99.90;;;;;;5030347;28;20022;-73
2021/04/29 00:44:29;;;;;;;9.40;7.32;;;8.90;99.90;;;;;;5029792;28;20045;-73
2021/04/29 00:46:57;;;;;;;14.52;8.15;;;8.80;99.90;;;;;;5028536;28;20033;-73
2021/04/29 00:49:23;;;;;;;13.77;8.52;;;8.80;99.90;;;;;;5029711;28;20117;-73
2021/04/29 00:51:48;;;;;;;14.45;8.55;;;8.80;99.90;;;;;;5028449;28;20104;-73
2021/04/29 00:54:14;;;;;;;10.38;7.43;;;8.80;99.90;;;;;;5029990;28;20076;-74
2021/04/29 00:56:39;;;;;;;12.20;8.05;;;8.70;99.90;;;;;;5029552;28;20068;-73
2021/04/29 00:59:05;;;;;;;10.15;8.40;;;8.70;99.90;;;;;;5029510;28;20091;-73
2021/04/29 01:01:32;;;;;;;12.52;8.55;;;8.60;99.90;;;;;;5029768;28;20052;-73
2021/04/29 01:04:26;;;;;;;12.18;8.27;;;8.60;99.90;;;;;;5028258;28;20513;-73
2021/04/29 01:07:01;;;;;;;11.57;8.45;;;8.60;99.90;;;;;;5029888;28;20037;-74
2021/04/29 01:09:37;;;;;;;10.95;7.68;;;8.50;99.90;;;;;;5029747;28;20028;-73
2021/04/29 01:12:43;;;;;;;15.05;9.25;;;8.50;99.90;;;;;;5028668;28;20083;-74
2021/04/29 01:15:10;;;;;;;14.43;9.38;;;8.50;99.90;;;;;;5007803;28;20393;-74
2021/04/29 01:17:37;;;;;;;15.30;10.18;;;8.50;99.90;;;;;;5028195;28;20021;-73
2021/04/29 01:20:05;;;;;;;12.43;8.45;;;8.30;99.90;;;;;;5028163;28;20418;-74
2021/04/29 01:22:35;;;;;;;14.90;8.98;;;8.20;99.90;;;;;;5029634;28;20482;-73
2021/04/29 01:25:11;;;;;;;14.10;9.82;;;8.20;99.90;;;;;;5028287;28;20457;-73
2021/04/29 01:27:37;;;;;;;14.50;9.68;;;8.20;99.90;;;;;;5027874;28;20112;-73
2021/04/29 01:30:09;;;;;;;15.10;10.05;;;8.10;99.90;;;;;;5029142;28;20029;-73
2021/04/29 01:32:36;;;;;;;15.23;9.57;;;8.10;99.90;;;;;;5029388;28;20037;-73
2021/04/29 01:35:03;;;;;;;14.52;9.95;;;8.20;99.90;;;;;;5029426;28;20118;-74
2021/04/29 01:37:29;;;;;;;13.90;9.07;;;8.20;99.90;;;;;;5029131;28;20021;-73
2021/04/29 01:39:54;;;;;;;14.77;9.45;;;8.20;99.90;;;;;;5029070;28;20041;-73
2021/04/29 01:42:20;;;;;;;12.18;10.13;;;8.20;99.90;;;;;;5029037;28;20017;-72
2021/04/29 01:44:46;;;;;;;13.77;10.02;;;8.20;99.90;;;;;;5029232;28;20032;-73
2021/04/29 01:47:11;;;;;;;16.70;10.57;;;8.30;99.90;;;;;;5029194;28;20108;-73
2021/04/29 01:49:37;;;;;;;15.70;11.73;;;8.50;99.90;;;;;;5033137;28;20036;-74
2021/04/29 01:52:04;;;;;;;23.35;12.15;;;8.80;99.90;;;;;;5032348;28;20024;-73
2021/04/29 01:54:29;;;;;;;19.15;12.10;;;9.10;99.90;;;;;;5033218;28;20025;-74
2021/04/29 01:56:55;;;;;;;18.63;12.07;;;9.50;99.90;;;;;;5033183;28;20536;-73
2021/04/29 01:59:22;;;;;;;17.40;12.02;;;9.70;99.90;;;;;;5032836;28;20022;-73
2021/04/29 02:01:48;;;;;;;15.23;11.30;;;10.00;99.90;;;;;;5032888;28;20029;-73
2021/04/29 02:04:14;;;;;;;16.38;11.57;;;10.10;99.90;;;;;;5032764;28;20051;-73
2021/04/29 02:06:41;;;;;;;20.02;11.55;;;10.20;99.90;;;;;;5032844;28;20552;-73
2021/04/29 02:09:08;;;;;;;15.80;11.75;;;10.20;99.90;;;;;;5031405;28;20064;-73
2021/04/29 02:11:53;;;;;;;16.50;11.43;;;10.30;99.90;;;;;;5031473;28;20029;-73
2021/04/29 02:14:32;;;;;;;15.60;11.57;;;10.30;99.90;;;;;;5031412;28;20403;-73
2021/04/29 02:17:02;;;;;;;18.20;11.88;;;10.40;99.90;;;;;;5032891;28;20100;-74
2021/04/29 02:19:30;;;;;;;19.25;12.23;;;10.40;99.90;;;;;;5032505;28;20021;-74
2021/04/29 02:21:56;;;;;;;19.77;11.85;;;10.50;99.90;;;;;;5032529;28;20505;-73
2021/04/29 02:24:23;;;;;;;23.63;12.20;;;10.50;99.90;;;;;;5032462;28;20022;-73
2021/04/29 02:26:50;;;;;;;18.63;11.50;;;10.60;99.90;;;;;;5032595;28;20386;-74
2021/04/29 02:29:16;;;;;;;16.23;11.23;;;10.70;99.90;;;;;;5032247;28;20041;-74
2021/04/29 02:31:42;;;;;;;18.90;11.77;;;10.70;99.90;;;;;;5032347;28;20045;-73
2021/04/29 02:34:08;;;;;;;20.05;10.95;;;10.80;99.90;;;;;;5032247;28;20064;-73
2021/04/29 02:36:35;;;;;;;15.05;11.88;;;10.90;99.90;;;;;;5032170;28;20026;-73
2021/04/29 02:39:05;;;;;;;15.05;11.20;;;11.00;99.90;;;;;;5030886;28;20112;-73
2021/04/29 02:41:31;;;;;;;16.63;10.68;;;11.00;99.90;;;;;;5030939;28;20026;-73
2021/04/29 02:43:59;;;;;;;14.60;10.52;;;11.10;99.90;;;;;;5032110;28;20072;-73
2021/04/29 02:46:25;;;;;;;13.10;10.52;;;11.10;99.90;;;;;;5032374;28;20064;-74
2021/04/29 02:48:51;;;;;;;17.45;11.60;;;11.20;99.90;;;;;;5030772;28;20475;-73
2021/04/29 02:51:16;;;;;;;14.38;10.07;;;11.20;99.90;;;;;;5032238;28;20113;-73
2021/04/29 02:53:42;;;;;;;14.93;11.25;;;11.20;99.90;;;;;;5030609;28;20116;-73
2021/04/29 02:56:08;;;;;;;19.60;11.32;;;11.10;99.90;;;;;;5031900;28;20021;-73
2021/04/29 02:58:45;;;;;;;15.35;11.05;;;11.10;99.90;;;;;;5031670;28;20458;-73
2021/04/29 03:01:11;;;;;;;14.00;11.15;;;11.10;99.90;;;;;;5030151;28;20036;-74
2021/04/29 03:03:37;;;;;;;18.13;11.50;;;11.10;99.90;;;;;;5031790;28;20022;-73
2021/04/29 03:06:03;;;;;;;16.33;10.73;;;11.10;99.90;;;;;;5031681;28;20394;-73
2021/04/29 03:08:29;;;;;;;16.02;10.77;;;11.10;99.90;;;;;;5030328;28;20517;-73
2021/04/29 03:10:55;;;;;;;14.77;11.05;;;11.10;99.90;;;;;;5030397;28;20039;-73
2021/04/29 03:13:21;;;;;;;17.45;11.85;;;11.00;99.90;;;;;;5030236;28;20032;-73
2021/04/29 03:15:46;;;;;;;16.00;11.25;;;11.00;99.90;;;;;;5031493;28;20026;-73
2021/04/29 03:18:12;;;;;;;14.93;10.88;;;11.00;99.90;;;;;;5030235;28;20083;-74
2021/04/29 03:20:38;;;;;;;15.68;10.82;;;10.90;99.90;;;;;;5030040;28;20371;-73
2021/04/29 03:23:04;;;;;;;14.07;10.23;;;10.90;99.90;;;;;;5031480;28;20027;-74
2021/04/29 03:25:29;;;;;;;12.40;9.68;;;10.90;99.90;;;;;;5031278;28;20025;-73
2021/04/29 03:27:55;;;;;;;14.30;10.80;;;10.90;99.90;;;;;;5031342;28;20092;-74
2021/04/29 03:30:21;;;;;;;12.27;10.18;;;10.90;99.90;;;;;;5046494;22;20046;-72
2021/04/29 03:32:46;;;;;;;16.00;10.02;;;10.90;99.90;;;;;;5031500;28;20076;-72
2021/04/29 03:35:12;;;;;;;15.52;10.05;;;10.90;99.90;;;;;;5031088;28;20037;-71
2021/04/29 03:37:38;;;;;;;15.65;10.35;;;11.00;99.90;;;;;;5031163;28;20029;-72
2021/04/29 03:40:04;;;;;;;13.27;10.05;;;11.00;99.90;;;;;;5031008;28;20479;-71
2021/04/29 03:42:30;;;;;;;14.10;9.23;;;11.00;99.90;;;;;;5029801;28;20029;-72
2021/04/29 03:44:55;;;;;;;15.30;9.90;;;11.00;99.90;;;;;;5031228;28;20051;-72
2021/04/29 03:47:21;;;;;;;13.85;9.15;;;11.10;99.90;;;;;;5030897;28;20022;-71
2021/04/29 03:49:47;;;;;;;13.13;9.35;;;11.10;99.90;;;;;;5030700;28;20021;-71
2021/04/29 03:52:13;;;;;;;12.60;8.55;;;11.10;99.90;;;;;;5029505;28;20028;-72
2021/04/29 03:54:38;;;;;;;11.07;8.10;;;11.10;99.90;;;;;;5029527;28;20022;-71
2021/04/29 03:57:04;;;;;;;10.43;8.07;;;11.10;99.90;;;;;;5029358;28;20039;-71
2021/04/29 03:59:29;;;;;;;14.90;8.27;;;11.10;99.90;;;;;;5029450;28;20395;-71
2021/04/29 04:01:55;;;;;;;14.95;8.45;;;11.10;99.90;;;;;;5029401;28;20029;-72
2021/04/29 04:04:21;;;;;;;17.42;9.05;;;11.10;99.90;;;;;;5029480;28;20064;-72
2021/04/29 04:06:46;;;;;;;13.15;8.63;;;11.10;99.90;;;;;;5029439;28;20025;-72
2021/04/29 04:09:12;;;;;;;11.63;8.07;;;11.10;99.90;;;;;;5030567;28;20502;-72
2021/04/29 04:11:37;;;;;;;11.80;7.45;;;11.10;99.90;;;;;;5029360;28;20445;-72
2021/04/29 04:14:03;;;;;;;13.48;8.68;;;11.20;99.90;;;;;;5030627;28;20041;-72
2021/04/29 04:16:29;;;;;;;11.73;7.40;;;11.20;99.90;;;;;;5029203;28;20120;-72
2021/04/29 04:18:56;;;;;;;9.02;7.25;;;11.30;99.90;;;;;;5029195;28;20028;-71
2021/04/29 04:21:21;;;;;;;13.52;7.63;;;11.30;99.90;;;;;;5030488;28;20068;-71
2021/04/29 04:23:47;;;;;;;13.23;8.48;;;11.40;99.90;;;;;;5030385;28;20021;-72
2021/04/29 04:26:13;;;;;;;10.80;7.78;;;11.40;99.90;;;;;;5030385;28;20033;-72
2021/04/29 04:28:38;;;;;;;10.43;7.28;;;11.40;99.90;;;;;;5030291;28;20491;-72
2021/04/29 04:31:04;;;;;;;11.30;7.85;;;11.50;99.90;;;;;;5028896;28;20034;-72
2021/04/29 04:33:29;;;;;;;14.07;8.15;;;11.50;99.90;;;;;;5030202;28;20119;-72
2021/04/29 04:35:55;;;;;;;13.70;7.07;;;11.50;99.90;;;;;;5030089;28;20026;-72
2021/04/29 04:38:20;;;;;;;9.60;7.25;;;11.60;99.90;;;;;;5028884;28;20448;-72
2021/04/29 04:40:46;;;;;;;9.65;7.05;;;11.50;99.90;;;;;;5028763;28;20025;-73
2021/04/29 04:43:12;;;;;;;10.48;7.28;;;11.60;99.90;;;;;;5030067;28;20438;-71
2021/04/29 04:45:37;;;;;;;11.15;6.90;;;11.60;99.90;;;;;;5030237;28;20037;-72
2021/04/29 04:48:03;;;;;;;9.27;6.95;;;11.60;99.90;;;;;;5029988;28;20034;-72
2021/04/29 04:50:29;;;;;;;9.55;6.55;;;11.70;99.90;;;;;;5028586;28;20048;-72
2021/04/29 04:52:55;;;;;;;9.13;6.88;;;11.70;99.90;;;;;;5029744;28;20034;-72
2021/04/29 04:55:20;;;;;;;10.57;6.85;;;11.80;99.90;;;;;;5028494;28;20033;-72
2021/04/29 04:57:46;;;;;;;11.05;6.40;;;11.80;99.90;;;;;;5029851;28;20047;-73
2021/04/29 05:00:12;;;;;;;8.82;6.10;;;11.90;99.90;;;;;;5029691;28;20024;-73
2021/04/29 05:02:39;;;;;;;10.45;6.35;;;11.90;99.90;;;;;;5029679;28;20028;-73
2021/04/29 05:05:06;;;;;;;9.55;7.03;;;12.00;99.90;;;;;;5028390;28;20060;-73
2021/04/29 05:07:32;;;;;;;10.75;6.80;;;12.00;99.90;;;;;;5028377;28;20050;-73
2021/04/29 05:09:58;;;;;;;14.45;6.38;;;12.10;99.90;;;;;;5029569;28;20026;-73
2021/04/29 05:12:24;;;;;;;7.32;6.10;;;12.20;99.90;;;;;;5029614;28;20086;-73
2021/04/29 05:14:50;;;;;;;11.68;6.45;;;12.30;99.90;;;;;;5028292;28;20018;-73
2021/04/29 05:17:15;;;;;;;10.13;6.35;;;12.30;99.90;;;;;;5030069;28;20029;-73
2021/04/29 05:19:41;;;;;;;11.48;6.95;;;12.50;99.90;;;;;;5029594;28;20119;-73
2021/04/29 05:22:06;;;;;;;9.35;6.45;;;12.50;99.90;;;;;;5027649;28;20029;-73
2021/04/29 05:24:32;;;;;;;10.05;6.10;;;12.60;99.90;;;;;;5029272;28;20501;-73
2021/04/29 05:26:57;;;;;;;7.97;6.55;;;12.70;99.90;;;;;;5029233;28;20025;-73
2021/04/29 05:29:23;;;;;;;10.88;5.97;;;12.80;99.90;;;;;;5027759;28;20026;-73
2021/04/29 05:31:48;;;;;;;9.20;6.45;;;12.90;99.90;;;;;;5028108;28;20465;-74
2021/04/29 05:34:14;;;;;;;9.55;7.10;;;13.00;99.90;;;;;;5029278;28;20029;-73
2021/04/29 05:36:40;;;;;;;9.30;6.72;;;13.10;99.90;;;;;;5027894;28;20124;-73
2021/04/29 05:39:05;;;;;;;9.82;6.22;;;13.20;99.90;;;;;;5029617;28;20037;-73
2021/04/29 05:41:31;;;;;;;13.05;7.00;;;13.40;99.90;;;;;;5029470;28;20478;-73
2021/04/29 05:43:57;;;;;;;8.95;6.95;;;13.50;99.90;;;;;;5029463;28;20072;-74
2021/04/29 05:46:22;;;;;;;9.50;5.97;;;13.70;99.90;;;;;;5028013;28;20025;-73
2021/04/29 05:48:48;;;;;;;12.40;6.43;;;13.90;99.90;;;;;;5027793;28;20116;-73
2021/04/29 05:51:14;;;;;;;9.45;5.82;;;14.10;99.90;;;;;;5027773;28;20116;-73
2021/04/29 05:53:39;;;;;;;11.65;6.72;;;14.20;99.90;;;;;;5029346;28;20026;-73
2021/04/29 05:56:05;;;;;;;8.35;5.88;;;14.40;99.90;;;;;;5027867;28;20116;-73
2021/04/29 05:58:30;;;;;;;9.00;5.60;;;14.60;99.90;;;;;;5029186;28;20525;-73
2021/04/29 06:00:56;;;;;;;10.18;5.72;;;14.70;99.90;;;;;;5029389;28;20390;-73
2021/04/29 06:03:22;;;;;;;7.88;5.70;;;14.70;99.90;;;;;;5027760;28;20033;-73
2021/04/29 06:05:49;;;;;;;10.52;5.47;;;14.70;99.90;;;;;;5029038;28;20474;-73
2021/04/29 06:08:15;;;;;;;7.70;5.20;;;14.80;99.90;;;;;;5027758;28;20033;-73
2021/04/29 06:10:40;;;;;;;9.10;5.35;;;14.90;99.90;;;;;;5027654;28;20036;-74
2021/04/29 06:13:06;;;;;;;9.55;5.35;;;15.00;99.90;;;;;;5028834;28;20037;-73
2021/04/29 06:15:31;;;;;;;6.50;4.20;;;15.30;99.90;;;;;;5029000;28;20033;-73
2021/04/29 06:17:57;;;;;;;6.07;4.60;;;15.50;99.90;;;;;;5028818;28;20029;-74
2021/04/29 06:20:23;;;;;;;10.48;4.07;;;15.70;99.90;;;;;;5027470;28;20434;-74
2021/04/29 06:22:49;;;;;;;6.82;4.45;;;15.80;99.90;;;;;;5029080;28;20101;-73
2021/04/29 06:25:15;;;;;;;7.13;3.55;;;15.80;99.90;;;;;;5027589;28;20025;-73
2021/04/29 06:27:41;;;;;;;5.05;2.92;;;15.60;99.90;;;;;;5027665;28;20029;-73
2021/04/29 06:30:08;;;;;;;4.50;2.40;;;15.50;99.90;;;;;;5027613;28;20048;-73
2021/04/29 06:32:34;;;;;;;3.50;2.40;;;15.40;99.90;;;;;;5033756;28;20021;-73
2021/04/29 06:34:59;;;;;;;5.15;1.80;;;15.50;99.90;;;;;;5036302;28;20078;-73
2021/04/29 06:37:25;;;;;;;3.85;1.98;;;15.70;99.90;;;;;;5037600;28;20394;-73
2021/04/29 06:39:51;;;;;;;6.43;2.35;;;16.10;99.90;;;;;;5035865;28;20470;-73
2021/04/29 06:42:16;;;;;;;10.20;2.72;;;16.50;99.90;;;;;;5034807;28;20019;-73
2021/04/29 06:44:42;;;;;;;6.13;2.45;;;17.00;99.90;;;;;;5033655;28;20057;-74
2021/04/29 06:47:08;;;;;;;9.48;1.92;;;17.40;99.90;;;;;;5033017;28;20398;-73
2021/04/29 06:49:34;;;;;;;12.20;2.42;;;17.60;99.90;;;;;;5033260;28;20507;-74
2021/04/29 06:51:59;;;;;;;6.03;1.95;;;17.80;99.90;;;;;;5031051;28;20053;-75
2021/04/29 06:54:25;;;;;;;4.25;1.33;;;17.80;99.90;;;;;;5031033;28;20028;-74
2021/04/29 06:56:52;;;;;;;4.72;1.65;;;17.60;99.90;;;;;;5031486;28;20490;-74
2021/04/29 06:59:18;;;;;;;10.43;2.03;;;17.30;99.90;;;;;;5030754;28;20030;-73
2021/04/29 07:01:44;;;;;;;8.75;1.80;;;17.10;99.90;;;;;;5031944;28;20093;-74
2021/04/29 07:04:09;;;;;;;4.10;1.60;;;17.00;99.90;;;;;;5032043;28;20426;-74
2021/04/29 07:06:35;;;;;;;1.70;1.23;;;16.90;99.90;;;;;;5032304;28;20033;-74
2021/04/29 07:09:01;;;;;;;5.20;1.10;;;16.90;99.90;;;;;;5030730;28;20143;-75
2021/04/29 07:11:28;;;;;;;2.75;1.10;;;16.80;99.90;;;;;;5031701;28;20048;-73
2021/04/29 07:13:53;;;;;;;4.95;0.80;;;16.90;99.90;;;;;;5030449;28;20029;-74
2021/04/29 07:16:19;;;;;;;5.22;1.00;;;16.80;99.90;;;;;;5031588;28;20041;-74
2021/04/29 07:18:45;;;;;;;2.75;1.05;;;17.00;99.90;;;;;;5030669;28;20552;-72
2021/04/29 07:21:11;;;;;;;1.45;0.80;;;17.30;99.90;;;;;;5030362;28;20048;-74
2021/04/29 07:23:36;;;;;;;4.57;1.00;;;17.50;99.90;;;;;;5031719;28;20026;-73
2021/04/29 07:26:02;;;;;;;4.07;0.90;;;17.70;99.90;;;;;;5031885;28;20033;-73
2021/04/29 07:28:28;;;;;;;2.13;0.82;;;18.00;99.90;;;;;;5031529;28;20043;-73
2021/04/29 07:30:54;;;;;;;6.13;1.10;;;18.10;99.60;;;;;;5031325;28;20032;-73
2021/04/29 07:33:20;;;;;;;4.82;1.52;;;18.30;99.20;;;;;;5030163;28;20037;-73
2021/04/29 07:35:45;;;;;;;1.65;0.80;;;18.70;96.40;;;;;;5029971;28;20022;-74
2021/04/29 07:38:11;;;;;;;3.72;1.10;;;19.20;92.90;;;;;;5030073;28;20033;-74
2021/04/29 07:40:38;;;;;;;0.70;0.70;;;19.30;91.50;;;;;;5031491;28;20021;-73
2021/04/29 07:43:04;;;;;;;4.72;1.10;;;19.30;91.30;;;;;;5029987;28;20070;-73
2021/04/29 07:45:30;;;;;;;3.47;1.38;;;19.10;87.90;;;;;;5030913;28;20029;-73
2021/04/29 07:47:56;;;;;;;3.58;1.10;;;19.00;86.70;;;;;;5029888;28;20495;-73
2021/04/29 07:50:21;;;;;;;2.72;0.98;;;19.00;89.30;;;;;;5029774;28;20030;-74
2021/04/29 07:52:48;;;;;;;2.70;0.90;;;19.10;87.30;;;;;;5031202;28;20466;-74
2021/04/29 07:55:15;;;;;;;6.65;1.55;;;19.20;87.40;;;;;;5029683;28;22040;-74
2021/04/29 07:57:41;;;;;;;3.88;1.52;;;19.40;86.90;;;;;;5029829;28;20120;-74
2021/04/29 08:00:09;;;;;;;9.32;1.55;;;19.80;84.10;;;;;;5030785;28;20092;-73
2021/04/29 08:02:35;;;;;;;6.18;1.30;;;19.80;81.90;;;;;;5030720;28;20152;-74
2021/04/29 08:05:01;;;;;;;6.75;1.45;;;19.90;79.30;;;;;;5031050;28;20462;-74
2021/04/29 08:07:27;;;;;;;8.75;1.33;;;19.40;79.80;;;;;;5030701;28;20100;-74
2021/04/29 08:09:52;;;;;;;7.22;1.67;;;18.90;82.50;;;;;;5029172;28;20111;-73
2021/04/29 08:12:18;;;;;;;1.90;1.25;;;18.50;85.10;;;;;;5029285;28;20386;-74
2021/04/29 08:14:44;;;;;;;4.65;1.50;;;18.30;86.60;;;;;;5030450;28;20463;-74
2021/04/29 08:17:10;;;;;;;6.03;1.67;;;18.00;87.50;;;;;;5030717;28;20037;-74
2021/04/29 08:19:35;;;;;;;5.05;1.40;;;17.60;90.30;;;;;;5031837;28;20024;-74
2021/04/29 08:22:03;;;;;;;3.92;1.50;;;17.50;91.70;;;;;;5030404;28;20017;-73
2021/04/29 08:24:29;;;;;;;9.18;1.58;;;17.10;92.20;;;;;;5030662;28;20018;-73
2021/04/29 08:26:54;;;;;;;5.15;1.27;;;16.90;93.10;;;;;;5030488;28;20480;-73
2021/04/29 08:29:20;;;;;;;8.85;1.85;;;16.70;94.20;;;;;;5028746;28;20021;-73
2021/04/29 08:31:46;;;;;;;5.50;1.38;;;16.60;94.10;;;;;;5029102;28;20078;-73
2021/04/29 08:34:12;;;;;;;6.57;2.00;;;16.50;94.60;;;;;;5030257;28;20021;-73
2021/04/29 08:36:37;;;;;;;3.78;1.50;;;16.40;95.80;;;;;;5028800;28;20399;-73
2021/04/29 08:39:05;;;;;;;4.68;1.33;;;16.30;96.10;;;;;;5028734;28;20026;-73
2021/04/29 08:41:32;;;;;;;1.65;0.98;;;16.20;95.80;;;;;;5028851;28;20104;-73
2021/04/29 08:43:57;;;;;;;4.63;1.33;;;16.20;96.70;;;;;;5028705;28;20021;-73
2021/04/29 08:46:23;;;;;;;8.20;1.40;;;16.20;97.50;;;;;;5029937;28;20029;-73
2021/04/29 08:48:57;;;;;;;6.28;1.98;;;16.30;97.60;;;;;;5030069;28;20025;-73
2021/04/29 08:51:23;;;;;;;4.72;1.35;;;16.30;97.40;;;;;;5028563;28;20032;-73
2021/04/29 08:53:50;;;;;;;10.73;1.88;;;16.40;97.90;;;;;;5029833;28;20148;-73
2021/04/29 08:56:22;;;;;;;5.18;1.80;;;16.30;93.70;;;;;;5028371;28;20021;-74
2021/04/29 08:58:50;;;;;;;4.13;1.70;;;16.20;94.20;;;;;;5028136;28;20372;-74
2021/04/29 09:01:15;;;;;;;9.27;1.85;;;16.30;93.60;;;;;;5028301;28;20032;-73
2021/04/29 09:03:41;;;;;;;4.25;1.80;;;16.20;93.30;;;;;;5028308;28;20022;-73
2021/04/29 09:06:07;;;;;;;6.35;1.63;;;16.20;93.90;;;;;;5028347;28;20029;-73
2021/04/29 09:08:37;;;;;;;7.75;2.00;;;16.40;93.30;;;;;;5029747;28;20025;-73
2021/04/29 09:11:16;;;;;;;5.95;1.90;;;16.40;93.40;;;;;;5029460;28;20022;-73
2021/04/29 09:14:03;;;;;;;6.03;2.10;;;16.60;93.00;;;;;;5028217;28;20052;-73
2021/04/29 09:16:43;;;;;;;3.50;1.40;;;16.70;93.00;;;;;;5028210;28;20025;-73
2021/04/29 09:19:26;;;;;;;6.43;1.83;;;16.70;93.60;;;;;;5030026;28;20143;-73
2021/04/29 09:21:53;;;;;;;4.93;1.90;;;16.80;93.20;;;;;;5028264;28;20026;-73
2021/04/29 09:24:32;;;;;;;6.60;1.75;;;16.90;92.20;;;;;;5029634;28;20037;-73
2021/04/29 09:27:20;;;;;;;7.70;1.95;;;17.00;92.30;;;;;;5031122;28;20390;-73
2021/04/29 09:29:51;;;;;;;4.35;1.90;;;17.00;92.00;;;;;;5050231;22;20051;-73
2021/04/29 09:32:23;;;;;;;6.22;2.25;;;17.30;91.60;;;;;;5048052;28;20112;-73
2021/04/29 09:34:48;;;;;;;4.10;1.95;;;17.40;90.50;;;;;;5049316;28;20021;-74
2021/04/29 09:37:24;;;;;;;7.15;1.90;;;17.60;90.50;;;;;;5048074;28;20031;-73
2021/04/29 09:39:50;;;;;;;3.75;1.80;;;17.60;90.30;;;;;;5049314;28;20025;-73
2021/04/29 09:42:34;;;;;;;4.40;1.90;;;17.90;88.20;;;;;;5047861;28;20077;-73
2021/04/29 09:45:02;;;;;;;4.50;1.70;;;18.00;86.70;;;;;;5048004;28;20064;-73
2021/04/29 09:47:28;;;;;;;5.93;2.40;;;18.10;86.60;;;;;;5049160;28;20052;-73
2021/04/29 09:49:53;;;;;;;4.63;2.28;;;18.10;83.40;;;;;;5049127;28;20040;-73
2021/04/29 09:52:23;;;;;;;5.72;2.20;;;18.10;84.80;;;;;;5047847;28;20478;-73
2021/04/29 09:54:49;;;;;;;4.97;2.38;;;18.10;83.70;;;;;;5049101;28;20036;-73
2021/04/29 09:57:24;;;;;;;2.40;1.90;;;18.30;80.30;;;;;;5047724;28;20401;-73
2021/04/29 09:59:56;;;;;;;5.13;2.20;;;18.30;80.10;;;;;;5047843;28;20486;-73
2021/04/29 10:02:22;;;;;;;5.30;1.60;;;18.40;79.90;;;;;;5049361;28;20033;-73
2021/04/29 10:04:50;;;;;;;5.55;2.15;;;18.50;79.00;;;;;;5049087;28;20432;-73
2021/04/29 10:07:16;;;;;;;3.85;2.50;;;18.60;75.70;;;;;;5047741;28;20025;-73
2021/04/29 10:09:43;;;;;;;6.95;2.53;;;18.70;74.50;;;;;;5050611;28;20394;-74
2021/04/29 10:12:14;;;;;;;3.35;1.80;;;18.90;75.00;;;;;;5052881;28;20028;-73
2021/04/29 10:14:45;;;;;;;6.68;2.72;;;19.10;71.60;;;;;;5051586;28;20402;-73
2021/04/29 10:17:12;;;;;;;9.10;2.85;;;19.10;68.90;;;;;;5052636;28;20021;-72
2021/04/29 10:19:48;;;;;;;6.10;3.22;;;19.10;69.20;;;;;;5052705;28;20075;-73
2021/04/29 10:22:15;;;;;;;7.68;2.97;;;18.60;68.40;;;;;;5051612;28;20025;-73
2021/04/29 10:24:42;;;;;;;6.03;2.33;;;18.50;69.10;;;;;;5051454;28;20043;-73
2021/04/29 10:27:09;;;;;;;5.55;2.92;;;18.70;68.10;;;;;;5052560;28;20029;-73
2021/04/29 10:29:36;;;;;;;5.05;2.58;;;18.50;68.90;;;;;;5051150;28;20401;-73
2021/04/29 10:32:06;;;;;;;4.88;2.60;;;18.50;69.00;;;;;;5051441;28;20068;-72
2021/04/29 10:34:47;;;;;;;5.82;3.40;;;18.50;70.00;;;;;;5051147;28;20033;-73
2021/04/29 10:37:21;;;;;;;3.75;2.70;;;18.80;67.00;;;;;;5051069;28;20532;-72
2021/04/29 10:39:57;;;;;;;6.32;3.00;;;19.30;65.20;;;;;;5052360;28;20027;-72
2021/04/29 10:42:24;;;;;;;6.40;2.95;;;19.80;63.30;;;;;;5052428;28;20024;-73
2021/04/29 10:44:52;;;;;;;4.57;2.60;;;20.10;61.90;;;;;;5050989;28;20124;-72
2021/04/29 10:47:31;;;;;;;5.32;3.13;;;20.20;60.70;;;;;;5050984;28;20037;-73
2021/04/29 10:50:18;;;;;;;8.27;3.20;;;20.00;59.80;;;;;;5052055;28;20053;-73
2021/04/29 10:52:50;;;;;;;7.65;3.47;;;19.90;59.70;;;;;;5050813;28;20021;-73
2021/04/29 10:55:24;;;;;;;14.48;3.35;;;20.00;58.50;;;;;;5051989;28;20070;-73
2021/04/29 10:57:50;;;;;;;6.05;2.70;;;19.80;57.20;;;;;;5050874;28;20036;-72
2021/04/29 11:00:17;;;;;;;5.43;3.20;;;19.60;59.00;;;;;;5051815;28;20029;-73
2021/04/29 11:02:42;;;;;;;6.43;3.17;;;19.60;59.20;;;;;;5052009;28;20032;-72
2021/04/29 11:05:21;;;;;;;5.72;3.15;;;19.60;59.30;;;;;;5050656;28;20394;-73
2021/04/29 11:07:48;;;;;;;5.80;3.35;;;19.90;58.40;;;;;;5050615;28;20036;-73
2021/04/29 11:10:15;;;;;;;8.63;3.33;;;20.00;57.30;;;;;;5050540;28;20033;-73
2021/04/29 11:12:55;;;;;;;11.63;3.53;;;20.50;57.80;;;;;;5051794;28;20024;-73
2021/04/29 11:15:27;;;;;;;6.85;3.03;;;20.70;55.30;;;;;;5052040;28;20024;-73
2021/04/29 11:18:12;;;;;;;5.70;3.17;;;20.70;55.50;;;;;;5051554;28;20028;-72
2021/04/29 11:20:58;;;;;;;6.50;3.28;;;21.00;54.50;;;;;;5050650;28;20021;-72
2021/04/29 11:23:36;;;;;;;7.20;3.90;;;21.30;54.30;;;;;;5051491;28;20049;-72
2021/04/29 11:26:12;;;;;;;6.32;4.10;;;21.40;52.60;;;;;;5050254;28;20028;-73
2021/04/29 11:28:38;;;;;;;7.97;3.70;;;21.70;52.30;;;;;;5051701;28;20049;-73
2021/04/29 11:31:05;;;;;;;6.43;2.92;;;21.90;53.20;;;;;;5051249;28;20060;-73
2021/04/29 11:33:35;;;;;;;5.82;3.10;;;21.80;52.20;;;;;;5050016;28;20025;-73
2021/04/29 11:36:17;;;;;;;5.50;3.15;;;21.90;51.90;;;;;;5051193;28;20033;-73
2021/04/29 11:38:58;;;;;;;5.68;3.08;;;22.10;50.20;;;;;;5051329;28;20029;-73
2021/04/29 11:41:25;;;;;;;6.90;3.13;;;22.50;50.70;;;;;;5050238;28;20445;-73
2021/04/29 11:44:02;;;;;;;3.75;2.85;;;23.70;47.70;;;;;;5051155;28;20104;-73
2021/04/29 11:46:28;;;;;;;8.75;3.28;;;25.20;45.50;;;;;;5049881;28;20039;-74
2021/04/29 11:48:55;;;;;;;4.80;2.72;;;25.80;42.10;;;;;;5051265;28;20032;-74
2021/04/29 11:51:22;;;;;;;5.68;2.85;;;26.10;41.60;;;;;;5049852;28;20037;-74
2021/04/29 11:53:47;;;;;;;5.38;3.58;;;26.00;40.60;;;;;;5049946;28;20036;-73
2021/04/29 11:56:14;;;;;;;5.70;3.40;;;25.90;40.20;;;;;;5050126;28;20025;-73
2021/04/29 11:58:40;;;;;;;4.10;3.25;;;25.40;40.50;;;;;;5051316;28;20410;-73
2021/04/29 12:01:12;;;;;;;6.97;3.42;;;24.50;41.20;;;;;;5050873;28;20021;-73
2021/04/29 12:03:38;;;;;;;6.13;3.42;;;24.10;42.50;;;;;;5051032;28;20021;-74
2021/04/29 12:06:04;;;;;;;5.90;3.60;;;24.00;42.80;;;;;;5051012;28;20062;-74
2021/04/29 12:08:33;;;;;;;4.45;3.05;;;24.00;42.50;;;;;;5051520;28;20017;-74
2021/04/29 12:11:04;;;;;;;13.93;4.18;;;24.30;42.60;;;;;;5049786;28;20057;-73
2021/04/29 12:13:35;;;;;;;6.80;3.55;;;25.10;41.40;;;;;;5051134;28;20030;-73
2021/04/29 12:16:09;;;;;;;8.20;3.67;;;25.70;39.70;;;;;;5052607;28;20025;-73
2021/04/29 12:18:40;;;;;;;6.53;4.10;;;25.80;38.60;;;;;;5049445;28;20025;-74
2021/04/29 12:21:07;;;;;;;11.73;3.70;;;26.10;37.80;;;;;;5050533;28;20021;-74
2021/04/29 12:23:33;;;;;;;6.30;3.70;;;25.90;38.80;;;;;;5050379;28;20481;-73
2021/04/29 12:26:07;;;;;;;5.90;3.13;;;26.20;38.40;;;;;;5050631;28;20037;-74
2021/04/29 12:28:36;;;;;;;6.30;3.58;;;26.40;38.50;;;;;;5049017;28;20032;-73
2021/04/29 12:31:15;;;;;;;5.55;3.45;;;26.40;37.30;;;;;;5050032;28;20048;-74
2021/04/29 12:34:07;;;;;;;9.40;4.10;;;26.30;37.30;;;;;;5048059;28;20040;-74
2021/04/29 12:36:33;;;;;;;4.25;3.08;;;26.20;37.80;;;;;;5050074;28;20444;-74
2021/04/29 12:38:59;;;;;;;4.53;2.97;;;26.80;37.70;;;;;;5048782;28;20393;-74
2021/04/29 12:41:28;;;;;;;6.82;3.30;;;27.80;35.80;;;;;;5049851;28;20025;-74
2021/04/29 12:44:04;;;;;;;4.80;2.60;;;28.00;36.00;;;;;;5048716;28;20131;-74
2021/04/29 12:46:40;;;;;;;6.50;3.50;;;27.80;35.30;;;;;;5049894;28;20036;-74